createdAt,value
2022-12-19T00:00:38.344Z,42.47
2022-12-19T00:03:06.792Z,34.42
2022-12-19T00:05:38.576Z,35.55
2022-12-19T00:08:16.927Z,39.28
2022-12-19T00:10:55.437Z,39.05
2022-12-19T00:13:23.696Z,35.42
2022-12-19T00:15:51.980Z,41.60
2022-12-19T00:18:20.307Z,37.05
2022-12-19T00:20:55.526Z,38.03
2022-12-19T00:23:23.800Z,41.08
2022-12-19T00:25:53.646Z,40.28
2022-12-19T00:28:22.295Z,42.53
2022-12-19T00:30:50.575Z,35.95
2022-12-19T00:33:21.739Z,38.65
2022-12-19T00:35:50.067Z,38.28
2022-12-19T00:38:18.387Z,39.60
2022-12-19T00:40:47.526Z,37.63
2022-12-19T00:43:17.173Z,39.72
2022-12-19T00:45:45.573Z,38.25
2022-12-19T00:48:16.753Z,40.20
2022-12-19T00:50:47.790Z,38.50
2022-12-19T00:53:16.144Z,37.88
2022-12-19T00:55:44.535Z,34.67
2022-12-19T00:58:13.059Z,38.60
2022-12-19T01:00:42.972Z,38.70
2022-12-19T01:03:11.826Z,38.90
2022-12-19T01:05:42.063Z,36.53
2022-12-19T01:08:10.624Z,34.33
2022-12-19T01:10:39.192Z,36.08
2022-12-19T01:13:07.698Z,40.20
2022-12-19T01:15:36.354Z,35.00
2022-12-19T01:18:10.055Z,37.25
2022-12-19T01:20:39.788Z,36.40
2022-12-19T01:23:08.442Z,35.30
2022-12-19T01:25:36.959Z,35.22
2022-12-19T01:28:08.081Z,35.35
2022-12-19T01:30:37.196Z,37.42
2022-12-19T01:33:10.757Z,36.30
2022-12-19T01:35:39.537Z,33.45
2022-12-19T01:38:08.906Z,37.28
2022-12-19T01:40:37.843Z,35.72
2022-12-19T01:43:06.547Z,37.03
2022-12-19T01:45:45.080Z,35.47
2022-12-19T01:48:19.459Z,35.55
2022-12-19T01:51:01.412Z,38.13
2022-12-19T01:53:48.395Z,37.92
2022-12-19T01:56:19.590Z,39.15
2022-12-19T01:58:58.950Z,41.63
2022-12-19T02:01:50.934Z,40.10
2022-12-19T02:04:28.933Z,37.17
2022-12-19T02:07:15.115Z,34.92
2022-12-19T02:09:45.759Z,37.70
2022-12-19T02:12:14.760Z,40.08
2022-12-19T02:14:43.584Z,39.47
2022-12-19T02:17:15.577Z,35.53
2022-12-19T02:19:59.286Z,33.80
2022-12-19T02:22:31.393Z,45.22
2022-12-19T02:25:08.000Z,32.25
2022-12-19T02:27:58.287Z,33.55
2022-12-19T02:30:44.073Z,39.97
2022-12-19T02:33:16.763Z,39.92
2022-12-19T02:35:47.253Z,36.72
2022-12-19T02:38:19.282Z,37.15
2022-12-19T02:40:51.908Z,40.95
2022-12-19T02:43:28.110Z,44.72
2022-12-19T02:45:58.366Z,37.42
2022-12-19T02:48:27.502Z,40.05
2022-12-19T02:50:56.406Z,40.03
2022-12-19T02:53:26.028Z,43.97
2022-12-19T02:56:17.653Z,37.83
2022-12-19T02:58:54.518Z,36.42
2022-12-19T03:01:33.742Z,38.63
2022-12-19T03:04:07.114Z,44.28
2022-12-19T03:06:41.459Z,41.83
2022-12-19T03:09:11.977Z,38.33
2022-12-19T03:11:41.183Z,38.65
2022-12-19T03:14:10.657Z,42.13
2022-12-19T03:16:40.354Z,41.50
2022-12-19T03:19:11.013Z,48.20
2022-12-19T03:21:40.473Z,39.78
2022-12-19T03:24:09.772Z,44.90
2022-12-19T03:26:43.315Z,38.67
2022-12-19T03:29:14.686Z,43.55
2022-12-19T03:31:46.602Z,46.20
2022-12-19T03:34:17.340Z,41.10
2022-12-19T03:36:47.686Z,37.45
2022-12-19T03:39:16.448Z,37.65
2022-12-19T03:42:03.131Z,37.83
2022-12-19T03:44:33.588Z,44.20
2022-12-19T03:47:07.722Z,42.13
2022-12-19T03:49:36.978Z,38.08
2022-12-19T03:52:12.453Z,36.80
2022-12-19T03:54:42.070Z,38.33
2022-12-19T03:57:11.865Z,44.58
2022-12-19T03:59:42.649Z,38.72
2022-12-19T04:02:13.825Z,38.78
2022-12-19T04:04:43.968Z,35.88
2022-12-19T04:07:13.952Z,39.72
2022-12-19T04:09:43.325Z,38.40
2022-12-19T04:12:13.972Z,38.25
2022-12-19T04:14:42.542Z,41.00
2022-12-19T04:17:15.072Z,38.53
2022-12-19T04:19:45.273Z,41.65
2022-12-19T04:22:15.633Z,37.10
2022-12-19T04:24:45.311Z,41.33
2022-12-19T04:27:14.153Z,44.53
2022-12-19T04:29:43.297Z,41.20
2022-12-19T04:32:13.565Z,39.10
2022-12-19T04:34:43.137Z,36.50
2022-12-19T04:37:12.667Z,37.83
2022-12-19T04:39:41.045Z,41.30
2022-12-19T04:42:09.317Z,46.03
2022-12-19T04:44:37.692Z,41.00
2022-12-19T04:47:06.014Z,40.58
2022-12-19T04:49:35.661Z,43.92
2022-12-19T04:52:04.033Z,45.03
2022-12-19T04:54:33.752Z,43.22
2022-12-19T04:57:02.030Z,39.17
2022-12-19T04:59:30.440Z,41.53
2022-12-19T05:01:58.820Z,42.40
2022-12-19T05:04:27.950Z,41.28
2022-12-19T05:06:57.586Z,53.50
2022-12-19T05:09:26.977Z,44.63
2022-12-19T05:11:55.255Z,43.15
2022-12-19T05:14:23.637Z,38.33
2022-12-19T05:16:54.830Z,40.63
2022-12-19T05:19:27.257Z,42.72
2022-12-19T05:21:55.532Z,42.35
2022-12-19T05:24:25.179Z,42.78
2022-12-19T05:26:53.562Z,45.67
2022-12-19T05:29:21.911Z,44.85
2022-12-19T05:31:50.551Z,41.65
2022-12-19T05:34:18.908Z,43.65
2022-12-19T05:36:47.465Z,45.47
2022-12-19T05:39:15.863Z,43.45
2022-12-19T05:41:48.995Z,50.47
2022-12-19T05:44:17.876Z,44.47
2022-12-19T05:46:46.371Z,38.60
2022-12-19T05:49:17.543Z,42.17
2022-12-19T05:51:49.016Z,43.05
2022-12-19T06:03:30.207Z,39.70
2022-12-19T06:08:30.640Z,42.17
2022-12-19T06:26:18.716Z,46.10
2022-12-19T06:28:48.536Z,42.38
2022-12-19T06:31:17.490Z,43.47
2022-12-19T06:33:46.002Z,43.50
2022-12-19T06:36:16.297Z,45.05
2022-12-19T06:38:44.705Z,46.33
2022-12-19T06:41:32.653Z,45.45
2022-12-19T06:44:02.594Z,36.78
2022-12-19T06:46:31.095Z,51.15
2022-12-19T06:48:59.718Z,41.80
2022-12-19T06:51:28.114Z,45.28
2022-12-19T06:53:56.594Z,42.35
2022-12-19T06:56:26.433Z,40.50
2022-12-19T06:58:54.968Z,44.83
2022-12-19T07:01:26.831Z,45.53
2022-12-19T07:03:55.722Z,46.05
2022-12-19T07:06:25.029Z,44.20
2022-12-19T07:08:54.758Z,42.50
2022-12-19T07:11:23.359Z,43.80
2022-12-19T07:13:53.403Z,49.75
2022-12-19T07:16:21.862Z,42.78
2022-12-19T07:18:50.499Z,52.63
2022-12-19T07:21:19.008Z,40.80
2022-12-19T07:23:47.498Z,44.65
2022-12-19T07:26:15.902Z,45.22
2022-12-19T07:28:44.594Z,44.45
2022-12-19T07:31:14.408Z,47.30
2022-12-19T07:33:46.004Z,50.60
2022-12-19T07:36:14.367Z,48.45
2022-12-19T07:38:42.758Z,45.83
2022-12-19T07:41:11.239Z,50.15
2022-12-19T07:43:39.699Z,51.92
2022-12-19T07:46:08.185Z,47.53
2022-12-19T07:48:38.041Z,48.53
2022-12-19T07:51:06.683Z,47.80
2022-12-19T07:53:35.020Z,44.65
2022-12-19T07:56:05.005Z,43.63
2022-12-19T07:58:35.035Z,40.58
2022-12-19T08:05:24.130Z,47.67
2022-12-19T08:07:55.673Z,42.53
2022-12-19T08:10:24.296Z,48.53
2022-12-19T08:12:52.619Z,46.55
2022-12-19T08:15:21.072Z,44.53
2022-12-19T08:17:59.718Z,43.97
2022-12-19T08:20:29.902Z,47.92
2022-12-19T08:23:01.532Z,46.33
2022-12-19T08:25:29.974Z,50.42
2022-12-19T08:27:58.378Z,45.33
2022-12-19T08:30:26.837Z,46.67
2022-12-19T08:32:55.210Z,44.70
2022-12-19T08:35:23.672Z,44.03
2022-12-19T08:37:53.439Z,46.58
2022-12-19T08:40:23.277Z,46.88
2022-12-19T08:42:51.694Z,48.95
2022-12-19T08:45:20.104Z,45.88
2022-12-19T08:47:48.487Z,48.58
2022-12-19T08:50:17.133Z,54.30
2022-12-19T08:52:45.797Z,47.50
2022-12-19T08:55:17.061Z,41.17
2022-12-19T08:57:45.454Z,44.00
2022-12-19T09:00:14.571Z,43.63
2022-12-19T09:02:47.862Z,49.13
2022-12-19T09:05:59.656Z,44.55
2022-12-19T09:08:08.877Z,47.53
2022-12-19T09:10:39.625Z,50.25
2022-12-19T09:14:06.862Z,51.38
2022-12-19T09:16:48.631Z,43.72
2022-12-19T09:19:19.113Z,50.10
2022-12-19T09:22:49.253Z,44.28
2022-12-19T09:25:39.681Z,47.58
2022-12-19T09:28:30.071Z,47.47
2022-12-19T09:31:37.257Z,46.13
2022-12-19T09:34:08.231Z,45.40
2022-12-19T09:37:19.006Z,50.53
2022-12-19T09:39:47.842Z,44.85
2022-12-19T09:42:23.406Z,52.35
2022-12-19T09:45:31.121Z,45.95
2022-12-19T09:48:03.720Z,45.08
2022-12-19T09:50:46.607Z,53.22
2022-12-19T09:53:19.243Z,42.08
2022-12-19T09:55:51.984Z,43.33
2022-12-19T09:58:25.587Z,44.35
2022-12-19T10:01:01.788Z,41.83
2022-12-19T10:03:40.410Z,50.00
2022-12-19T10:07:07.674Z,50.72
2022-12-19T10:09:51.322Z,47.78
2022-12-19T10:12:43.675Z,50.03
2022-12-19T10:14:59.502Z,41.33
2022-12-19T10:22:32.881Z,50.00
2022-12-19T10:25:18.974Z,46.33
2022-12-19T10:27:59.172Z,51.88
2022-12-19T10:30:32.275Z,46.45
2022-12-19T10:33:11.764Z,48.85
2022-12-19T10:35:52.968Z,43.33
2022-12-19T10:38:28.849Z,49.35
2022-12-19T10:41:13.155Z,44.10
2022-12-19T10:43:52.650Z,50.03
2022-12-19T10:46:25.500Z,47.78
2022-12-19T10:48:58.758Z,45.88
2022-12-19T10:51:29.408Z,42.03
2022-12-19T10:54:02.318Z,43.20
2022-12-19T10:56:45.740Z,48.42
2022-12-19T10:59:24.179Z,51.13
2022-12-19T11:02:04.904Z,46.35
2022-12-19T11:05:00.158Z,56.85
2022-12-19T11:07:32.670Z,47.60
2022-12-19T11:11:24.520Z,50.60
2022-12-19T11:19:14.926Z,44.20
2022-12-19T11:20:45.555Z,41.78
2022-12-19T11:29:27.284Z,43.33
2022-12-19T11:30:08.450Z,43.58
2022-12-19T11:32:31.906Z,45.05
2022-12-19T11:46:43.839Z,42.63
2022-12-19T11:50:11.762Z,44.90
2022-12-19T11:53:07.807Z,44.42
2022-12-19T11:55:54.055Z,46.35
2022-12-19T11:58:41.146Z,40.25
2022-12-19T12:01:36.011Z,43.90
2022-12-19T12:04:35.071Z,43.92
2022-12-19T12:07:12.764Z,48.35
2022-12-19T12:12:05.001Z,47.83
2022-12-19T12:18:21.260Z,65.43
2022-12-19T12:30:54.492Z,49.75
2022-12-19T12:31:13.060Z,50.63
2022-12-19T12:31:16.047Z,41.20
2022-12-19T12:31:46.588Z,43.97
2022-12-19T12:31:52.924Z,43.50
2022-12-19T12:32:03.000Z,41.67
2022-12-19T12:35:42.532Z,40.80
2022-12-19T12:39:05.479Z,41.20
2022-12-19T12:41:57.370Z,42.13
2022-12-19T12:44:33.007Z,45.17
2022-12-19T12:47:04.183Z,44.28
2022-12-19T12:49:37.658Z,43.78
2022-12-19T12:52:06.790Z,37.50
2022-12-19T12:54:35.953Z,43.17
2022-12-19T12:57:04.623Z,42.55
2022-12-19T12:59:34.351Z,44.72
2022-12-19T13:02:09.271Z,45.25
2022-12-19T13:04:52.288Z,51.53
2022-12-19T13:07:29.987Z,59.03
2022-12-19T13:10:17.022Z,46.40
2022-12-19T13:13:00.756Z,47.05
2022-12-19T13:15:37.139Z,50.92
2022-12-19T13:18:16.576Z,48.53
2022-12-19T13:20:46.483Z,45.65
2022-12-19T13:23:34.521Z,49.75
2022-12-19T13:26:02.993Z,47.83
2022-12-19T13:28:43.255Z,42.30
2022-12-19T13:31:23.147Z,40.28
2022-12-19T13:34:10.804Z,41.38
2022-12-19T13:39:50.859Z,45.72
2022-12-19T13:40:03.341Z,43.00
2022-12-19T13:42:53.792Z,40.28
2022-12-19T13:45:42.489Z,39.85
2022-12-19T13:48:16.129Z,45.83
2022-12-19T13:50:45.684Z,55.20
2022-12-19T13:53:16.604Z,64.65
2022-12-19T13:55:45.370Z,59.45
2022-12-19T13:58:28.879Z,50.15
2022-12-19T14:00:59.995Z,57.75
2022-12-19T14:03:37.119Z,48.72
2022-12-19T14:06:17.615Z,44.50
2022-12-19T14:08:48.306Z,46.50
2022-12-19T14:12:28.270Z,45.63
2022-12-19T14:14:47.837Z,49.20
2022-12-19T14:17:17.225Z,48.65
2022-12-19T14:19:47.884Z,44.65
2022-12-19T14:22:25.963Z,44.88
2022-12-19T14:24:55.636Z,42.10
2022-12-19T14:28:20.038Z,43.55
2022-12-19T14:30:36.807Z,49.28
2022-12-19T14:33:39.531Z,52.45
2022-12-19T14:36:08.960Z,50.28
2022-12-19T14:39:24.399Z,53.10
2022-12-19T14:42:01.921Z,47.42
2022-12-19T14:52:34.123Z,56.55
2022-12-19T14:53:17.505Z,53.47
2022-12-19T14:54:04.327Z,48.42
2022-12-19T14:54:40.345Z,43.47
2022-12-19T14:56:57.633Z,49.40
2022-12-19T14:59:06.920Z,48.70
2022-12-19T15:01:37.830Z,49.75
2022-12-19T15:04:50.817Z,45.03
2022-12-19T15:07:16.186Z,52.10
2022-12-19T15:11:07.400Z,54.50
2022-12-19T15:14:55.303Z,50.13
2022-12-19T15:16:26.199Z,52.78
2022-12-19T15:35:33.888Z,52.05
2022-12-19T15:43:23.796Z,56.20
2022-12-19T15:47:04.799Z,53.70
2022-12-19T15:50:28.657Z,51.42
2022-12-19T15:53:18.231Z,59.95
2022-12-19T15:56:01.023Z,58.67
2022-12-19T15:58:34.459Z,55.72
2022-12-19T16:01:07.449Z,58.88
2022-12-19T16:03:47.604Z,56.70
2022-12-19T16:06:18.782Z,51.63
2022-12-19T16:08:50.399Z,61.03
2022-12-19T16:11:20.718Z,58.35
2022-12-19T16:13:51.729Z,59.33
2022-12-19T16:16:20.256Z,58.53
2022-12-19T16:18:50.444Z,56.72
2022-12-19T16:21:27.469Z,56.47
2022-12-19T16:23:57.891Z,53.22
2022-12-19T16:26:30.943Z,52.17
2022-12-19T16:28:59.388Z,50.22
2022-12-19T16:31:28.839Z,55.28
2022-12-19T16:33:58.562Z,53.55
2022-12-19T16:37:31.955Z,52.53
2022-12-19T16:40:17.500Z,49.50
2022-12-19T16:42:48.689Z,50.75
2022-12-19T16:45:18.645Z,52.35
2022-12-19T16:47:50.065Z,45.45
2022-12-19T16:58:11.130Z,50.50
2022-12-19T17:01:34.333Z,53.35
2022-12-19T17:04:09.549Z,48.38
2022-12-19T17:06:54.756Z,50.17
2022-12-19T17:13:18.352Z,45.30
2022-12-19T17:15:52.631Z,46.33
2022-12-19T17:18:27.309Z,50.35
2022-12-19T17:20:55.957Z,50.00
2022-12-19T17:23:25.521Z,45.25
2022-12-19T17:25:59.467Z,50.08
2022-12-19T17:28:28.345Z,49.47
2022-12-19T17:30:58.715Z,58.00
2022-12-19T17:33:30.010Z,52.92
2022-12-19T17:35:58.478Z,55.92
2022-12-19T17:38:27.222Z,56.88
2022-12-19T17:40:56.232Z,51.90
2022-12-19T17:43:26.010Z,46.35
2022-12-19T17:45:54.505Z,50.95
2022-12-19T17:48:26.878Z,51.72
2022-12-19T17:50:55.724Z,44.72
2022-12-19T17:53:25.106Z,43.10
2022-12-19T17:55:53.826Z,46.80
2022-12-19T17:58:22.509Z,50.88
2022-12-19T18:00:57.833Z,49.67
2022-12-19T18:03:28.553Z,54.30
2022-12-19T18:06:00.815Z,47.85
2022-12-19T18:08:30.387Z,43.65
2022-12-19T18:11:00.202Z,39.38
2022-12-19T18:13:30.076Z,47.55
2022-12-19T18:16:00.807Z,46.50
2022-12-19T18:18:30.314Z,51.03
2022-12-19T18:20:58.672Z,51.20
2022-12-19T18:23:26.952Z,48.25
2022-12-19T18:26:01.193Z,46.38
2022-12-19T18:28:30.554Z,45.58
2022-12-19T18:31:02.264Z,55.28
2022-12-19T18:33:33.328Z,48.70
2022-12-19T18:36:01.664Z,48.60
2022-12-19T18:38:30.005Z,51.83
2022-12-19T18:40:58.369Z,52.03
2022-12-19T18:43:26.702Z,47.28
2022-12-19T18:45:55.771Z,53.10
2022-12-19T18:48:27.213Z,49.85
2022-12-19T18:50:56.348Z,42.22
2022-12-19T18:53:34.522Z,49.55
2022-12-19T18:56:03.830Z,54.30
2022-12-19T18:58:32.192Z,51.28
2022-12-19T19:01:01.519Z,53.40
2022-12-19T19:03:32.968Z,54.85
2022-12-19T19:06:01.734Z,55.28
2022-12-19T19:08:31.706Z,56.58
2022-12-19T19:11:14.325Z,60.10
2022-12-19T19:13:42.723Z,57.17
2022-12-19T19:16:17.789Z,54.45
2022-12-19T19:18:48.668Z,59.90
2022-12-19T19:21:17.442Z,64.07
2022-12-19T19:23:47.075Z,47.63
2022-12-19T19:26:15.428Z,56.10
2022-12-19T19:28:48.613Z,55.90
2022-12-19T19:31:21.519Z,51.50
2022-12-19T19:33:52.455Z,60.83
2022-12-19T19:36:22.512Z,71.35
2022-12-19T19:38:53.005Z,65.32
2022-12-19T19:41:21.427Z,64.47
2022-12-19T19:43:49.899Z,67.22
2022-12-19T19:46:18.442Z,68.07
2022-12-19T19:48:46.903Z,69.30
2022-12-19T19:51:18.183Z,66.28
2022-12-19T19:53:46.763Z,70.88
2022-12-19T19:56:15.054Z,63.97
2022-12-19T19:58:43.562Z,59.60
2022-12-19T20:01:12.839Z,65.25
2022-12-19T20:03:43.215Z,60.10
2022-12-19T20:06:11.990Z,60.70
2022-12-19T20:08:41.774Z,55.05
2022-12-19T20:11:10.560Z,60.85
2022-12-19T20:13:40.111Z,62.60
2022-12-19T20:16:10.141Z,51.97
2022-12-19T20:18:39.763Z,52.40
2022-12-19T20:21:12.731Z,49.03
2022-12-19T20:23:44.200Z,54.03
2022-12-19T20:26:14.984Z,57.33
2022-12-19T20:28:48.460Z,56.15
2022-12-19T20:31:19.249Z,52.05
2022-12-19T20:33:48.287Z,56.10
2022-12-19T20:36:17.077Z,54.67
2022-12-19T20:38:48.636Z,49.22
2022-12-19T20:41:20.065Z,52.45
2022-12-19T20:43:51.354Z,50.22
2022-12-19T20:46:22.037Z,52.65
2022-12-19T20:48:50.989Z,59.72
2022-12-19T20:51:21.267Z,51.00
2022-12-19T20:53:54.948Z,57.25
2022-12-19T20:56:25.812Z,53.50
2022-12-19T20:58:54.614Z,50.50
2022-12-19T21:01:24.671Z,46.50
2022-12-19T21:03:54.375Z,46.20
2022-12-19T21:06:28.725Z,47.83
2022-12-19T21:08:59.778Z,47.20
2022-12-19T21:11:28.160Z,49.13
2022-12-19T21:13:57.279Z,45.28
2022-12-19T21:16:26.136Z,42.78
2022-12-19T21:18:54.512Z,47.75
2022-12-19T21:21:24.625Z,46.00
2022-12-19T21:23:54.227Z,48.05
2022-12-19T21:26:24.961Z,53.33
2022-12-19T21:28:54.403Z,53.80
2022-12-19T21:31:25.030Z,53.67
2022-12-19T21:33:55.829Z,49.05
2022-12-19T21:36:25.471Z,45.45
2022-12-19T21:38:55.302Z,53.95
2022-12-19T21:41:25.530Z,45.38
2022-12-19T21:43:55.079Z,46.08
2022-12-19T21:46:24.635Z,47.00
2022-12-19T21:48:54.759Z,50.25
2022-12-19T21:51:24.724Z,51.88
2022-12-19T21:53:55.227Z,42.83
2022-12-19T21:56:26.248Z,46.65
2022-12-19T21:58:56.775Z,48.58
2022-12-19T22:01:26.603Z,44.28
2022-12-19T22:03:59.246Z,44.38
2022-12-19T22:06:30.538Z,49.88
2022-12-19T22:08:59.270Z,45.38
2022-12-19T22:11:29.859Z,44.67
2022-12-19T22:14:00.189Z,42.28
2022-12-19T22:16:28.870Z,45.10
2022-12-19T22:18:57.339Z,46.83
2022-12-19T22:21:29.658Z,41.60
2022-12-19T22:24:05.693Z,43.03
2022-12-19T22:26:36.915Z,40.40
2022-12-19T22:29:08.696Z,44.40
2022-12-19T22:31:38.409Z,37.88
2022-12-19T22:34:09.251Z,38.22
2022-12-19T22:36:38.641Z,40.45
2022-12-19T22:39:08.271Z,41.85
2022-12-19T22:41:38.506Z,38.70
2022-12-19T22:44:08.887Z,44.47
2022-12-19T22:46:38.306Z,39.55
2022-12-19T22:49:08.661Z,45.47
2022-12-19T22:51:38.015Z,45.70
2022-12-19T22:54:06.604Z,46.75
2022-12-19T22:56:35.617Z,43.53
2022-12-19T22:59:06.528Z,43.25
2022-12-19T23:01:36.690Z,40.72
2022-12-19T23:04:06.325Z,44.65
2022-12-19T23:06:35.906Z,44.28
2022-12-19T23:09:04.514Z,43.97
2022-12-19T23:11:34.332Z,51.10
2022-12-19T23:14:06.183Z,50.17
2022-12-19T23:16:35.922Z,46.22
2022-12-19T23:19:04.270Z,42.28
2022-12-19T23:25:32.007Z,44.13
2022-12-19T23:28:56.597Z,49.30
2022-12-19T23:32:30.141Z,43.40
2022-12-19T23:35:22.019Z,40.08
2022-12-19T23:37:50.537Z,46.28
2022-12-19T23:40:20.534Z,44.03
2022-12-19T23:42:48.827Z,41.53
2022-12-19T23:45:17.299Z,40.50
2022-12-19T23:47:47.641Z,42.13
2022-12-19T23:50:16.346Z,42.40
2022-12-19T23:52:45.511Z,49.47
2022-12-19T23:55:13.975Z,44.95
2022-12-19T23:57:42.336Z,43.00
